createdAt,value
2022-11-15T00:00:48.483Z,22.23
2022-11-15T00:03:19.705Z,23.45
2022-11-15T00:08:12.854Z,22.02
2022-11-15T00:10:39.365Z,21.77
2022-11-15T00:13:10.947Z,21.70
2022-11-15T00:15:38.598Z,20.95
2022-11-15T00:18:06.098Z,20.92
2022-11-15T00:20:34.902Z,19.05
2022-11-15T00:23:01.213Z,16.42
2022-11-15T00:25:28.128Z,18.83
2022-11-15T00:27:58.779Z,18.17
2022-11-15T00:30:25.920Z,17.02
2022-11-15T00:32:52.314Z,21.98
2022-11-15T00:35:19.622Z,23.23
2022-11-15T00:37:47.376Z,19.40
2022-11-15T00:40:14.720Z,21.20
2022-11-15T00:42:41.746Z,19.58
2022-11-15T00:45:08.809Z,16.83
2022-11-15T00:47:35.173Z,22.08
2022-11-15T00:50:01.537Z,16.35
2022-11-15T00:52:27.855Z,19.02
2022-11-15T00:54:54.196Z,19.52
2022-11-15T00:57:20.501Z,18.92
2022-11-15T00:59:46.834Z,20.33
2022-11-15T01:02:13.174Z,21.05
2022-11-15T01:04:40.110Z,17.85
2022-11-15T01:07:06.456Z,17.45
2022-11-15T01:09:32.815Z,23.77
2022-11-15T01:11:59.125Z,22.83
2022-11-15T01:14:25.878Z,18.85
2022-11-15T01:16:52.215Z,20.05
2022-11-15T01:19:18.596Z,19.52
2022-11-15T01:21:44.883Z,27.65
2022-11-15T01:24:14.307Z,18.63
2022-11-15T01:26:40.816Z,19.63
2022-11-15T01:29:07.158Z,21.95
2022-11-15T01:31:33.515Z,22.42
2022-11-15T01:33:59.800Z,21.80
2022-11-15T01:36:26.126Z,23.25
2022-11-15T01:38:57.690Z,21.52
2022-11-15T01:41:27.531Z,26.08
2022-11-15T01:43:57.254Z,22.67
2022-11-15T01:46:26.244Z,22.58
2022-11-15T01:48:55.195Z,25.92
2022-11-15T01:51:24.896Z,24.05
2022-11-15T01:53:56.079Z,18.50
2022-11-15T01:58:52.811Z,23.40
2022-11-15T02:01:20.049Z,21.10
2022-11-15T02:04:00.261Z,20.38
2022-11-15T02:06:26.568Z,18.85
2022-11-15T02:08:53.097Z,18.05
2022-11-15T02:11:19.814Z,23.88
2022-11-15T02:13:46.829Z,21.13
2022-11-15T02:16:43.753Z,22.80
2022-11-15T02:19:37.219Z,24.60
2022-11-15T02:22:34.994Z,19.67
2022-11-15T02:25:23.289Z,18.50
2022-11-15T02:28:31.890Z,21.60
2022-11-15T02:31:11.876Z,21.00
2022-11-15T02:34:15.742Z,17.55
2022-11-15T02:36:57.914Z,19.83
2022-11-15T02:39:49.987Z,21.45
2022-11-15T02:42:41.685Z,20.00
2022-11-15T02:45:11.362Z,19.83
2022-11-15T02:47:44.872Z,18.55
2022-11-15T02:50:15.399Z,20.17
2022-11-15T02:52:41.815Z,18.58
2022-11-15T02:55:41.942Z,18.42
2022-11-15T02:58:27.026Z,19.40
2022-11-15T03:01:05.521Z,18.98
2022-11-15T03:03:35.007Z,19.63
2022-11-15T03:06:22.010Z,17.42
2022-11-15T03:09:06.057Z,17.85
2022-11-15T03:11:37.774Z,21.05
2022-11-15T03:14:10.023Z,20.02
2022-11-15T03:16:55.067Z,18.30
2022-11-15T03:19:33.679Z,18.80
2022-11-15T03:22:03.813Z,24.83
2022-11-15T03:24:32.753Z,17.98
2022-11-15T03:27:02.347Z,21.30
2022-11-15T03:29:33.935Z,20.67
2022-11-15T03:32:07.206Z,21.92
2022-11-15T03:34:50.452Z,21.00
2022-11-15T03:37:18.664Z,18.77
2022-11-15T03:39:45.219Z,23.63
2022-11-15T03:42:31.453Z,20.27
2022-11-15T03:45:18.765Z,20.95
2022-11-15T03:48:13.623Z,21.85
2022-11-15T03:50:41.494Z,16.75
2022-11-15T03:53:09.029Z,21.25
2022-11-15T03:55:35.404Z,24.35
2022-11-15T03:58:02.682Z,19.60
2022-11-15T04:00:29.558Z,22.58
2022-11-15T04:02:56.154Z,18.77
2022-11-15T04:05:22.470Z,18.38
2022-11-15T04:07:48.758Z,20.30
2022-11-15T04:10:15.708Z,19.73
2022-11-15T04:12:50.058Z,20.17
2022-11-15T04:15:19.630Z,20.33
2022-11-15T04:17:50.355Z,19.33
2022-11-15T04:20:36.511Z,20.20
2022-11-15T04:23:38.932Z,23.10
2022-11-15T04:26:15.379Z,21.05
2022-11-15T04:29:01.667Z,19.50
2022-11-15T04:31:28.790Z,22.80
2022-11-15T04:33:55.550Z,19.42
2022-11-15T04:36:41.164Z,18.05
2022-11-15T04:39:07.671Z,22.20
2022-11-15T04:41:34.221Z,23.65
2022-11-15T04:44:00.565Z,20.85
2022-11-15T04:46:27.122Z,22.63
2022-11-15T04:48:58.274Z,18.77
2022-11-15T04:51:25.109Z,21.00
2022-11-15T04:53:51.399Z,20.17
2022-11-15T04:56:17.696Z,19.42
2022-11-15T04:58:44.020Z,22.20
2022-11-15T05:01:15.821Z,23.10
2022-11-15T05:04:01.837Z,26.02
2022-11-15T05:06:28.336Z,22.48
2022-11-15T05:08:54.997Z,22.38
2022-11-15T05:11:21.760Z,24.38
2022-11-15T05:13:48.704Z,21.10
2022-11-15T05:16:15.321Z,20.27
2022-11-15T05:18:41.706Z,23.00
2022-11-15T05:21:14.945Z,19.85
2022-11-15T05:23:42.006Z,19.02
2022-11-15T05:26:09.685Z,19.75
2022-11-15T05:28:37.265Z,18.23
2022-11-15T05:31:13.294Z,17.40
2022-11-15T05:33:40.814Z,19.20
2022-11-15T05:36:21.145Z,17.67
2022-11-15T05:38:49.299Z,15.65
2022-11-15T05:41:19.886Z,21.85
2022-11-15T05:43:49.916Z,22.58
2022-11-15T05:46:17.135Z,19.73
2022-11-15T05:48:47.809Z,19.02
2022-11-15T05:51:16.316Z,23.90
2022-11-15T05:53:42.752Z,21.10
2022-11-15T05:56:10.058Z,18.67
2022-11-15T05:58:37.646Z,18.60
2022-11-15T06:01:04.009Z,21.80
2022-11-15T06:03:30.753Z,19.20
2022-11-15T06:05:57.745Z,17.15
2022-11-15T06:08:24.053Z,20.33
2022-11-15T06:10:50.349Z,17.10
2022-11-15T06:13:16.750Z,19.08
2022-11-15T06:15:43.078Z,14.90
2022-11-15T06:18:09.367Z,24.15
2022-11-15T06:20:35.699Z,16.80
2022-11-15T06:23:04.518Z,19.58
2022-11-15T06:25:32.229Z,18.55
2022-11-15T06:28:00.053Z,18.90
2022-11-15T06:30:27.457Z,17.42
2022-11-15T06:33:01.414Z,16.10
2022-11-15T06:35:27.970Z,18.25
2022-11-15T06:37:54.288Z,21.02
2022-11-15T06:40:20.591Z,19.10
2022-11-15T06:42:47.045Z,20.90
2022-11-15T06:45:13.628Z,19.63
2022-11-15T06:47:47.667Z,19.55
2022-11-15T06:50:14.348Z,19.17
2022-11-15T06:52:40.666Z,20.88
2022-11-15T06:55:07.788Z,20.52
2022-11-15T06:57:34.153Z,22.30
2022-11-15T07:00:00.498Z,17.80
2022-11-15T07:02:27.079Z,20.45
2022-11-15T07:04:53.418Z,17.35
2022-11-15T07:07:19.863Z,21.42
2022-11-15T07:09:46.218Z,20.88
2022-11-15T07:12:12.597Z,19.42
2022-11-15T07:14:38.901Z,17.45
2022-11-15T07:17:06.158Z,21.65
2022-11-15T07:19:33.356Z,18.73
2022-11-15T07:22:02.637Z,19.75
2022-11-15T07:24:28.952Z,27.50
2022-11-15T07:26:55.356Z,22.77
2022-11-15T07:29:21.837Z,22.30
2022-11-15T07:31:48.913Z,22.65
2022-11-15T07:34:15.211Z,24.95
2022-11-15T07:36:41.519Z,26.13
2022-11-15T07:39:07.939Z,23.50
2022-11-15T07:41:34.461Z,28.40
2022-11-15T07:44:01.228Z,20.15
2022-11-15T07:46:27.559Z,21.73
2022-11-15T07:48:53.898Z,20.17
2022-11-15T07:51:20.962Z,21.52
2022-11-15T07:53:47.255Z,19.05
2022-11-15T07:56:14.130Z,18.20
2022-11-15T07:58:40.802Z,14.48
2022-11-15T08:01:09.000Z,14.60
2022-11-15T08:03:36.157Z,14.25
2022-11-15T08:06:03.322Z,12.38
2022-11-15T08:08:29.718Z,11.40
2022-11-15T08:10:58.554Z,9.30
2022-11-15T08:13:25.002Z,9.23
2022-11-15T08:15:56.396Z,10.77
2022-11-15T08:18:24.180Z,15.35
2022-11-15T08:20:50.510Z,11.43
2022-11-15T08:23:16.940Z,13.32
2022-11-15T08:25:43.396Z,11.27
2022-11-15T08:28:11.237Z,11.20
2022-11-15T08:30:42.359Z,10.35
2022-11-15T08:35:37.145Z,11.02
2022-11-15T08:38:03.997Z,12.00
2022-11-15T08:40:30.313Z,10.48
2022-11-15T08:42:56.630Z,9.93
2022-11-15T08:45:22.981Z,12.85
2022-11-15T08:47:53.941Z,10.30
2022-11-15T08:50:20.885Z,12.32
2022-11-15T08:52:48.947Z,9.15
2022-11-15T08:55:17.544Z,12.32
2022-11-15T08:57:44.318Z,7.93
2022-11-15T09:00:12.335Z,10.40
2022-11-15T09:02:39.870Z,8.70
2022-11-15T09:05:07.074Z,7.90
2022-11-15T09:07:33.492Z,8.93
2022-11-15T09:09:59.887Z,8.98
2022-11-15T09:12:26.664Z,11.15
2022-11-15T09:14:53.369Z,8.30
2022-11-15T09:17:24.415Z,9.95
2022-11-15T09:19:51.387Z,8.75
2022-11-15T09:22:17.708Z,9.05
2022-11-15T09:24:44.124Z,9.45
2022-11-15T09:27:10.480Z,10.85
2022-11-15T09:29:37.204Z,7.88
2022-11-15T09:32:03.623Z,10.98
2022-11-15T09:34:30.015Z,9.00
2022-11-15T09:36:56.473Z,9.55
2022-11-15T09:39:22.837Z,11.65
2022-11-15T09:41:58.937Z,7.95
2022-11-15T09:44:49.276Z,10.35
2022-11-15T09:47:53.184Z,7.30
2022-11-15T09:50:47.976Z,6.75
2022-11-15T09:53:47.890Z,7.13
2022-11-15T09:56:16.187Z,5.72
2022-11-15T09:58:51.790Z,6.43
2022-11-15T10:01:35.071Z,8.65
2022-11-15T10:04:01.863Z,7.72
2022-11-15T10:06:29.311Z,8.65
2022-11-15T10:09:05.456Z,6.43
2022-11-15T10:11:38.163Z,8.55
2022-11-15T10:14:25.940Z,5.38
2022-11-15T10:17:14.166Z,5.65
2022-11-15T10:19:50.248Z,4.13
2022-11-15T10:22:26.910Z,6.28
2022-11-15T10:25:14.737Z,5.05
2022-11-15T10:27:42.700Z,6.35
2022-11-15T10:30:15.906Z,4.95
2022-11-15T10:32:44.223Z,5.22
2022-11-15T10:35:28.968Z,2.75
2022-11-15T10:38:10.250Z,4.68
2022-11-15T10:40:37.820Z,6.07
2022-11-15T10:43:10.371Z,6.70
2022-11-15T10:45:37.733Z,4.85
2022-11-15T10:48:13.226Z,6.82
2022-11-15T10:50:41.769Z,2.83
2022-11-15T10:53:25.237Z,3.25
2022-11-15T10:55:56.105Z,5.00
2022-11-15T10:58:42.044Z,2.75
2022-11-15T11:01:17.844Z,2.88
2022-11-15T11:03:58.026Z,3.65
2022-11-15T11:06:24.332Z,2.80
2022-11-15T11:08:57.969Z,3.65
2022-11-15T11:11:25.011Z,3.85
2022-11-15T11:13:51.369Z,2.40
2022-11-15T11:16:43.409Z,6.63
2022-11-15T11:19:35.648Z,5.00
2022-11-15T11:22:35.206Z,3.75
2022-11-15T11:25:26.075Z,3.15
2022-11-15T11:28:16.838Z,2.40
2022-11-15T11:31:01.359Z,3.88
2022-11-15T11:33:34.537Z,3.40
2022-11-15T11:36:48.985Z,2.03
2022-11-15T11:39:29.577Z,2.58
2022-11-15T11:42:20.157Z,1.48
2022-11-15T11:45:02.157Z,1.47
2022-11-15T11:47:37.873Z,1.98
2022-11-15T11:50:20.768Z,4.10
2022-11-15T11:53:13.260Z,5.65
2022-11-15T11:55:46.601Z,2.13
2022-11-15T11:58:24.812Z,2.13
2022-11-15T12:00:53.953Z,1.70
2022-11-15T12:03:30.009Z,3.28
2022-11-15T12:06:12.399Z,2.80
2022-11-15T12:08:41.953Z,2.03
2022-11-15T12:11:15.789Z,1.65
2022-11-15T12:13:43.710Z,1.80
2022-11-15T12:16:18.276Z,6.10
2022-11-15T12:18:50.499Z,1.20
2022-11-15T12:21:40.394Z,2.13
2022-11-15T12:24:21.399Z,4.25
2022-11-15T12:27:02.615Z,1.10
2022-11-15T12:32:00.846Z,5.70
2022-11-15T12:34:29.897Z,2.85
2022-11-15T12:36:56.680Z,2.33
2022-11-15T12:40:04.178Z,0.93
2022-11-15T12:42:57.916Z,3.05
2022-11-15T12:45:37.587Z,0.77
2022-11-15T12:48:16.203Z,2.53
2022-11-15T12:51:08.941Z,1.50
2022-11-15T12:53:35.873Z,1.08
2022-11-15T12:56:05.193Z,3.28
2022-11-15T12:58:52.725Z,0.63
2022-11-15T13:01:31.463Z,3.90
2022-11-15T13:04:19.424Z,2.97
2022-11-15T13:06:54.064Z,3.13
2022-11-15T13:09:32.584Z,2.25
2022-11-15T13:12:04.278Z,2.45
2022-11-15T13:14:50.798Z,1.95
2022-11-15T13:17:19.930Z,1.70
2022-11-15T13:19:57.978Z,1.75
2022-11-15T13:22:42.927Z,2.00
2022-11-15T13:25:20.065Z,0.88
2022-11-15T13:27:49.252Z,0.98
2022-11-15T13:30:33.013Z,2.97
2022-11-15T13:33:08.453Z,2.50
2022-11-15T13:35:40.642Z,3.72
2022-11-15T13:38:07.573Z,3.03
2022-11-15T13:40:38.230Z,2.72
2022-11-15T13:43:23.750Z,4.18
2022-11-15T13:46:17.594Z,2.58
2022-11-15T13:48:45.917Z,1.95
2022-11-15T13:51:18.193Z,2.10
2022-11-15T13:53:49.766Z,1.33
2022-11-15T13:56:19.693Z,1.48
2022-11-15T13:58:46.225Z,2.22
2022-11-15T14:01:20.419Z,2.13
2022-11-15T14:03:54.352Z,1.17
2022-11-15T14:06:23.264Z,2.08
2022-11-15T14:09:09.876Z,2.33
2022-11-15T14:11:36.393Z,1.77
2022-11-15T14:14:02.656Z,2.55
2022-11-15T14:16:44.740Z,2.67
2022-11-15T14:19:14.375Z,1.73
2022-11-15T14:22:35.822Z,1.65
2022-11-15T14:25:07.466Z,1.75
2022-11-15T14:27:34.588Z,0.98
2022-11-15T14:30:01.535Z,4.03
2022-11-15T14:32:43.652Z,2.30
2022-11-15T14:35:15.715Z,3.47
2022-11-15T14:37:42.007Z,2.97
2022-11-15T14:40:13.102Z,3.10
2022-11-15T14:45:13.810Z,1.70
2022-11-15T14:47:40.451Z,1.42
2022-11-15T14:50:07.531Z,4.25
2022-11-15T14:52:36.022Z,1.20
2022-11-15T14:55:04.954Z,5.15
2022-11-15T14:57:31.795Z,1.90
2022-11-15T14:59:58.095Z,3.22
2022-11-15T15:02:26.100Z,5.95
2022-11-15T15:04:52.920Z,1.88
2022-11-15T15:07:19.797Z,2.75
2022-11-15T15:09:46.933Z,3.15
2022-11-15T15:12:25.016Z,3.15
2022-11-15T15:14:51.575Z,2.20
2022-11-15T15:17:18.703Z,2.22
2022-11-15T15:19:45.207Z,2.90
2022-11-15T15:22:23.377Z,3.17
2022-11-15T15:24:49.758Z,1.65
2022-11-15T15:27:16.118Z,5.18
2022-11-15T15:29:42.473Z,1.70
2022-11-15T15:32:09.942Z,4.63
2022-11-15T15:34:36.288Z,1.23
2022-11-15T15:37:24.952Z,4.60
2022-11-15T15:39:56.461Z,5.30
2022-11-15T15:42:23.933Z,4.45
2022-11-15T15:44:51.355Z,3.45
2022-11-15T15:47:23.692Z,2.45
2022-11-15T15:49:51.132Z,4.68
2022-11-15T15:52:18.221Z,2.15
2022-11-15T15:54:44.550Z,2.63
2022-11-15T15:57:13.932Z,4.95
2022-11-15T15:59:40.387Z,2.72
2022-11-15T16:02:07.066Z,5.65
2022-11-15T16:04:33.345Z,3.67
2022-11-15T16:07:00.890Z,5.60
2022-11-15T16:09:46.522Z,3.15
2022-11-15T16:12:12.897Z,5.55
2022-11-15T16:14:39.246Z,1.75
2022-11-15T16:17:06.086Z,2.42
2022-11-15T16:19:32.406Z,4.05
2022-11-15T16:21:58.698Z,2.38
2022-11-15T16:24:25.034Z,2.78
2022-11-15T16:26:52.335Z,4.88
2022-11-15T16:29:18.679Z,5.47
2022-11-15T16:31:45.034Z,2.42
2022-11-15T16:34:11.359Z,2.45
2022-11-15T16:36:37.705Z,1.75
2022-11-15T16:39:04.947Z,5.28
2022-11-15T16:41:31.631Z,7.22
2022-11-15T16:43:57.948Z,2.83
2022-11-15T16:46:27.906Z,3.15
2022-11-15T16:48:54.585Z,1.98
2022-11-15T16:51:21.501Z,6.38
2022-11-15T16:53:49.074Z,3.60
2022-11-15T16:56:26.972Z,3.63
2022-11-15T16:59:01.065Z,3.90
2022-11-15T17:01:31.506Z,3.25
2022-11-15T17:03:58.731Z,3.40
2022-11-15T17:06:26.585Z,2.53
2022-11-15T17:08:52.927Z,5.07
2022-11-15T17:11:21.646Z,3.83
2022-11-15T17:13:49.365Z,4.78
2022-11-15T17:16:17.902Z,6.18
2022-11-15T17:18:47.098Z,2.40
2022-11-15T17:21:15.695Z,8.10
2022-11-15T17:23:42.877Z,3.83
2022-11-15T17:26:29.013Z,5.60
2022-11-15T17:28:57.601Z,3.33
2022-11-15T17:31:25.207Z,3.83
2022-11-15T17:33:51.492Z,4.68
2022-11-15T17:36:17.862Z,7.18
2022-11-15T17:38:44.497Z,3.42
2022-11-15T17:41:14.346Z,4.05
2022-11-15T17:43:41.018Z,4.80
2022-11-15T17:46:12.639Z,5.28
2022-11-15T17:48:39.014Z,3.72
2022-11-15T17:51:07.631Z,3.78
2022-11-15T17:53:37.282Z,4.22
2022-11-15T17:56:24.731Z,5.60
2022-11-15T17:58:56.665Z,3.20
2022-11-15T18:01:29.181Z,3.67
2022-11-15T18:03:56.975Z,6.65
2022-11-15T18:06:24.525Z,4.15
2022-11-15T18:08:52.491Z,5.63
2022-11-15T18:11:19.842Z,2.78
2022-11-15T18:13:52.101Z,6.65
2022-11-15T18:16:21.259Z,4.63
2022-11-15T18:18:48.085Z,5.60
2022-11-15T18:21:20.040Z,8.55
2022-11-15T18:23:46.576Z,4.47
2022-11-15T18:26:15.356Z,3.65
2022-11-15T18:28:44.177Z,2.90
2022-11-15T18:31:25.513Z,2.08
2022-11-15T18:33:52.598Z,4.07
2022-11-15T18:36:25.323Z,4.30
2022-11-15T18:39:00.514Z,5.47
2022-11-15T18:41:30.761Z,4.03
2022-11-15T18:44:02.208Z,3.10
2022-11-15T18:46:31.787Z,3.20
2022-11-15T18:49:00.488Z,6.10
2022-11-15T18:51:30.150Z,3.80
2022-11-15T18:53:58.561Z,3.25
2022-11-15T18:56:26.424Z,5.43
2022-11-15T18:58:58.118Z,2.60
2022-11-15T19:01:27.912Z,3.60
2022-11-15T19:03:56.431Z,5.13
2022-11-15T19:06:28.791Z,3.83
2022-11-15T19:08:58.127Z,3.25
2022-11-15T19:11:27.965Z,3.42
2022-11-15T19:13:56.633Z,3.17
2022-11-15T19:16:24.131Z,5.25
2022-11-15T19:18:58.851Z,3.10
2022-11-15T19:21:26.877Z,6.78
2022-11-15T19:23:54.187Z,4.80
2022-11-15T19:26:22.546Z,4.78
2022-11-15T19:28:53.980Z,6.55
2022-11-15T19:31:21.646Z,4.28
2022-11-15T19:33:48.018Z,1.45
2022-11-15T19:36:24.006Z,3.92
2022-11-15T19:38:50.539Z,4.03
2022-11-15T19:41:19.096Z,7.75
2022-11-15T19:43:50.686Z,3.20
2022-11-15T19:46:18.676Z,3.42
2022-11-15T19:48:45.175Z,5.85
2022-11-15T19:51:14.320Z,4.25
2022-11-15T19:53:41.869Z,3.13
2022-11-15T19:56:12.800Z,6.15
2022-11-15T19:58:39.640Z,4.80
2022-11-15T20:01:13.086Z,6.47
2022-11-15T20:03:39.926Z,3.20
2022-11-15T20:06:12.127Z,4.75
2022-11-15T20:08:38.842Z,5.60
2022-11-15T20:11:08.280Z,5.80
2022-11-15T20:13:34.838Z,3.17
2022-11-15T20:16:01.252Z,5.22
2022-11-15T20:18:29.226Z,5.00
2022-11-15T20:20:57.824Z,3.88
2022-11-15T20:23:25.592Z,4.25
2022-11-15T20:25:52.691Z,2.38
2022-11-15T20:28:23.029Z,3.75
2022-11-15T20:30:53.305Z,6.10
2022-11-15T20:33:20.455Z,3.17
2022-11-15T20:35:46.915Z,4.38
2022-11-15T20:38:13.796Z,6.82
2022-11-15T20:40:40.979Z,4.30
2022-11-15T20:43:12.213Z,3.95
2022-11-15T20:45:39.437Z,4.07
2022-11-15T20:48:06.786Z,3.53
2022-11-15T20:50:42.466Z,3.90
2022-11-15T20:53:11.542Z,4.35
2022-11-15T20:55:52.263Z,3.70
2022-11-15T20:58:19.567Z,4.78
2022-11-15T21:00:46.402Z,3.65
2022-11-15T21:03:15.452Z,4.53
2022-11-15T21:05:43.767Z,4.43
2022-11-15T21:08:12.092Z,3.60
2022-11-15T21:10:59.308Z,5.20
2022-11-15T21:13:27.497Z,3.55
2022-11-15T21:15:57.838Z,5.65
2022-11-15T21:18:25.064Z,3.80
2022-11-15T21:20:53.774Z,4.35
2022-11-15T21:23:21.058Z,5.07
2022-11-15T21:25:54.614Z,4.57
2022-11-15T21:28:21.237Z,5.15
2022-11-15T21:30:56.424Z,5.85
2022-11-15T21:33:24.073Z,4.35
2022-11-15T21:35:54.513Z,6.30
2022-11-15T21:38:23.698Z,4.53
2022-11-15T21:40:51.223Z,5.13
2022-11-15T21:43:18.028Z,5.60
2022-11-15T21:46:02.268Z,5.57
2022-11-15T21:48:31.286Z,7.50
2022-11-15T21:51:01.690Z,6.75
2022-11-15T21:53:29.772Z,5.90
2022-11-15T21:55:56.125Z,5.03
2022-11-15T21:58:22.999Z,7.93
2022-11-15T22:01:08.678Z,6.50
2022-11-15T22:03:35.802Z,5.60
2022-11-15T22:06:02.112Z,6.22
2022-11-15T22:08:28.408Z,9.98
2022-11-15T22:10:56.607Z,5.82
2022-11-15T22:13:23.975Z,7.15
2022-11-15T22:15:51.571Z,7.50
2022-11-15T22:18:31.453Z,7.28
2022-11-15T22:21:00.472Z,6.50
2022-11-15T22:23:28.611Z,7.35
2022-11-15T22:25:55.176Z,5.95
2022-11-15T22:28:22.076Z,6.35
2022-11-15T22:30:51.945Z,7.55
2022-11-15T22:33:20.161Z,7.20
2022-11-15T22:35:47.170Z,7.78
2022-11-15T22:38:13.630Z,6.30
2022-11-15T22:40:40.139Z,7.35
2022-11-15T22:43:06.722Z,7.30
2022-11-15T22:45:33.658Z,7.53
2022-11-15T22:48:00.094Z,12.68
2022-11-15T22:50:26.475Z,7.88
2022-11-15T22:52:52.851Z,6.00
2022-11-15T22:55:19.200Z,8.68
2022-11-15T22:57:45.607Z,7.70
2022-11-15T23:00:15.536Z,8.00
2022-11-15T23:02:42.523Z,8.63
2022-11-15T23:05:09.586Z,8.38
2022-11-15T23:07:36.102Z,9.63
2022-11-15T23:10:25.436Z,7.15
2022-11-15T23:13:10.264Z,10.30
2022-11-15T23:15:55.067Z,9.02
2022-11-15T23:18:21.460Z,10.93
2022-11-15T23:20:47.857Z,9.07
2022-11-15T23:23:14.313Z,8.70
2022-11-15T23:25:40.901Z,9.27
2022-11-15T23:28:07.409Z,8.82
2022-11-15T23:30:58.194Z,11.18
2022-11-15T23:33:43.262Z,4.68
2022-11-15T23:36:09.678Z,12.07
2022-11-15T23:38:37.288Z,9.57
2022-11-15T23:41:05.430Z,10.25
2022-11-15T23:43:32.100Z,12.73
2022-11-15T23:46:01.535Z,12.93
2022-11-15T23:48:28.135Z,12.27
2022-11-15T23:50:54.636Z,9.95
2022-11-15T23:53:21.526Z,13.23
2022-11-15T23:56:00.021Z,11.43
2022-11-15T23:58:26.380Z,8.70
